Latest Weather Observations for Double Island Point

IDQ60901

Issued at 2:31 pm EST Saturday 25 February 2017 (issued every 10 minutes, with the page automatically refreshed every 10 minutes)

About weather observations | Map of Brisbane area stations | Latest observations for Brisbane area | Other Formats
Station Details ID: 040068 Name: DOUBLE ISLAND POINT LIGHTHOUSE Lat: -25.93 Lon: 153.19 Height: 95.64 m
Data from the previous 72 hours. | See also: Recent months at Double Island Point
Date/Time
EST
Temp
°C
App
Temp
°C
Dew
Point
°C
Rel
Hum
%
Delta-T
°C
Wind Press
QNH
hPa
Press
MSL
hPa
Rain since
9am
mm
Dir  Spd
km/h
Gust
km/h
Spd
kts
Gust
kts
25/02:00pm 27.1 24.5 20.0 65 4.6 SSE 33 39 18 21 1014.0 1013.4 0.0
25/01:30pm 27.0 24.2 20.3 66 4.4 SSE 35 41 19 22 1014.4 1013.8 0.0
25/01:00pm 26.8 23.7 19.7 65 4.6 SSE 35 41 19 22 1014.8 1014.2 0.0
25/12:30pm 26.6 23.3 20.0 67 4.3 SSE 37 44 20 24 1014.9 1014.3 0.0
25/12:00pm 26.5 22.9 19.4 65 4.6 SSE 37 44 20 24 1015.2 1014.6 0.0
25/11:30am 27.0 23.5 19.6 64 4.8 SSE 37 44 20 24 1015.5 1014.9 0.0
25/11:00am 26.7 22.0 17.8 58 5.6 SE 39 43 21 23 1015.7 1015.1 0.0
25/10:30am 27.1 23.4 18.4 59 5.6 SSE 35 41 19 22 1016.0 1015.5 0.0
25/10:00am 26.7 23.0 18.3 60 5.4 SE 35 43 19 23 1016.3 1015.8 0.0
25/09:30am 26.1 21.5 18.0 61 5.1 SSE 39 43 21 23 1016.2 1015.7 0.0
25/09:00am 26.1 21.7 17.5 59 5.4 SSE 37 43 20 23 1016.3 1015.8 0.0
25/08:30am 26.1 21.4 17.7 60 5.3 SSE 39 44 21 24 1016.2 1015.7 0.0
25/08:00am 25.6 21.1 18.3 64 4.6 SSE 39 44 21 24 1016.0 1015.5 0.0
25/07:30am 25.6 21.1 18.3 64 4.6 SE 39 44 21 24 1015.7 1015.1 0.0
25/07:00am 25.1 21.3 19.0 69 3.9 SE 37 43 20 23 1015.5 1014.9 0.0
25/06:30am 24.5 19.8 18.7 70 3.7 SE 41 46 22 25 1015.2 1014.6 0.0
25/06:00am 24.2 20.3 19.5 75 3.0 SSE 39 44 21 24 1015.0 1014.4 0.0
25/05:30am 24.3 22.6 20.6 80 2.4 SE 30 39 16 21 1015.0 1014.4 0.0
25/05:00am 24.0 22.4 20.1 79 2.5 SSE 28 35 15 19 1014.8 1014.2 0.0
25/04:30am 23.9 22.3 20.0 79 2.5 SSE 28 33 15 18 1014.5 1013.9 0.0
25/04:00am 23.8 22.6 20.1 80 2.4 SSE 26 30 14 16 1014.4 1013.8 0.0
25/03:30am 23.9 22.7 20.0 79 2.5 SSE 26 32 14 17 1014.5 1013.9 0.0
25/03:00am 23.9 22.3 20.0 79 2.5 SSE 28 33 15 18 1014.3 1013.7 0.0
25/02:30am 24.0 22.3 19.9 78 2.7 SE 28 32 15 17 1014.3 1013.7 0.0
25/02:00am 23.9 22.2 19.8 78 2.6 SE 28 32 15 17 1014.3 1013.7 0.0
25/01:30am 23.9 22.1 19.6 77 2.8 SE 28 32 15 17 1014.5 1013.9 0.0
25/01:00am 24.0 22.9 20.3 80 2.4 SE 26 30 14 16 1014.8 1014.2 0.0
25/12:30am 24.0 22.8 20.1 79 2.5 SE 26 33 14 18 1015.1 1014.5 0.0
25/12:00am 24.1 22.8 20.6 81 2.3 SE 28 32 15 17 1015.4 1014.8 0.0
 
Date/Time
EST
Temp
°C
App
Temp
°C
Dew
Point
°C
Rel
Hum
%
Delta-T
°C
Wind Press
QNH
hPa
Press
MSL
hPa
Rain since
9am
mm
Dir  Spd
km/h
Gust
km/h
Spd
kts
Gust
kts
24/11:30pm 24.1 23.1 21.2 84 1.9 SE 28 33 15 18 1015.8 1015.2 0.0
24/11:00pm 24.1 22.0 20.6 81 2.3 SE 32 35 17 19 1016.0 1015.5 0.0
24/10:30pm 24.2 22.3 20.9 82 2.2 SE 32 37 17 20 1016.2 1015.7 0.0
24/10:00pm 24.3 22.4 21.0 82 2.2 SE 32 35 17 19 1016.3 1015.8 0.0
24/09:30pm 24.5 22.6 21.4 83 2.1 ESE 33 37 18 20 1016.5 1016.0 0.0
24/09:00pm 24.6 22.8 21.1 81 2.3 ESE 32 39 17 21 1016.5 1016.0 0.0
24/08:30pm 24.6 22.5 20.9 80 2.4 ESE 33 41 18 22 1016.4 1015.9 0.0
24/08:00pm 24.6 22.2 21.1 81 2.3 ESE 35 41 19 22 1016.2 1015.7 0.0
24/07:30pm 24.6 21.5 20.5 78 2.7 ESE 37 44 20 24 1016.1 1015.6 0.0
24/07:00pm 24.7 21.4 20.8 79 2.6 SE 39 44 21 24 1015.9 1015.4 0.0
24/06:30pm 24.8 21.0 20.5 77 2.8 SE 41 46 22 25 1015.8 1015.2 0.0
24/06:00pm 25.0 21.0 20.9 78 2.7 SE 43 48 23 26 1015.7 1015.1 0.0
24/05:30pm 25.2 21.6 20.9 77 2.8 SE 41 44 22 24 1015.6 1015.0 0.0
24/05:00pm 25.5 22.0 21.2 77 2.8 SE 41 46 22 25 1015.4 1014.8 0.0
24/04:30pm 25.4 21.9 21.1 77 2.8 SE 41 46 22 25 1015.5 1014.9 0.0
24/04:00pm 26.2 22.9 21.6 76 3.1 SE 41 46 22 25 1015.4 1014.8 0.0
24/03:30pm 26.5 23.9 21.5 74 3.3 SSE 37 44 20 24 1015.5 1014.9 0.0
24/03:00pm 27.3 25.0 22.0 73 3.6 SSE 37 43 20 23 1015.5 1014.9 0.0
24/02:30pm 26.9 24.2 21.2 71 3.8 SE 37 43 20 23 1015.7 1015.1 0.0
24/02:00pm 27.3 25.4 21.3 69 4.0 SSE 33 37 18 20 1015.9 1015.4 0.0
24/01:30pm 26.8 24.6 20.4 68 4.2 SE 32 35 17 19 1016.2 1015.7 0.0
24/01:00pm 27.8 26.1 21.3 67 4.3 SE 32 35 17 19 1016.4 1015.9 0.0
24/12:30pm 27.5 25.9 20.8 67 4.4 SE 30 35 16 19 1016.7 1016.2 0.0
24/12:00pm 27.7 26.0 20.5 65 4.7 SSE 30 33 16 18 1017.0 1016.5 0.0
24/11:30am 27.6 25.9 19.9 63 5.0 SSE 28 33 15 18 1017.2 1016.7 0.0
24/11:00am 27.6 25.7 19.4 61 5.3 SSE 28 33 15 18 1017.6 1017.1 0.0
24/10:30am 27.3 24.9 19.1 61 5.3 SE 30 33 16 18 1017.8 1017.3 0.0
24/10:00am 26.9 24.3 18.7 60 5.3 SE 30 35 16 19 1017.9 1017.4 0.0
24/09:30am 26.6 23.6 18.7 62 5.1 SE 32 35 17 19 1018.0 1017.5 0.0
24/09:00am 26.6 24.0 18.7 62 5.1 SE 30 35 16 19 1017.9 1017.4 0.0
24/08:30am 26.7 24.3 18.3 60 5.4 SSE 28 35 15 19 1017.8 1017.3 0.0
24/08:00am 26.4 23.9 18.0 60 5.3 SE 28 32 15 17 1017.7 1017.2 0.0
24/07:30am 26.0 22.6 17.6 60 5.3 SE 32 35 17 19 1017.4 1016.9 0.0
24/07:00am 25.2 21.4 17.1 60 5.0 SE 33 39 18 21 1017.0 1016.5 0.0
24/06:30am 24.9 21.1 18.1 66 4.3 SE 35 43 19 23 1016.8 1016.3 0.0
24/06:00am 24.3 20.9 18.2 68 3.8 SE 33 37 18 20 1016.4 1015.9 0.0
24/05:30am 24.2 21.1 18.8 72 3.4 SE 33 39 18 21 1016.1 1015.6 0.0
24/05:00am 24.3 20.8 18.0 68 4.0 SE 33 37 18 20 1016.1 1015.6 0.0
24/04:30am 24.1 21.4 19.6 76 2.9 SE 33 41 18 22 1015.8 1015.2 0.0
24/04:00am 24.0 20.3 19.1 74 3.1 SE 37 43 20 23 1015.8 1015.2 0.0
24/03:30am 24.2 21.3 19.3 74 3.1 SE 33 39 18 21 1015.9 1015.4 0.0
24/03:00am 24.3 21.2 18.9 72 3.4 SE 33 39 18 21 1016.2 1015.7 0.0
24/02:30am 24.4 21.1 19.2 73 3.3 SE 35 41 19 22 1016.3 1015.8 0.0
24/02:00am 24.3 20.8 19.6 75 3.0 SE 37 43 20 23 1016.4 1015.9 0.0
24/01:30am 24.3 20.7 19.4 74 3.2 SE 37 44 20 24 1016.7 1016.2 0.0
24/01:00am 24.3 21.3 20.6 80 2.4 SE 37 48 20 26 1017.0 1016.5 0.0
24/12:30am 24.5 22.0 20.2 77 2.8 SE 33 39 18 21 1017.1 1016.6 0.0
24/12:00am 24.3 20.8 18.7 71 3.6 SE 35 41 19 22 1017.3 1016.8 0.0
 
Date/Time
EST
Temp
°C
App
Temp
°C
Dew
Point
°C
Rel
Hum
%
Delta-T
°C
Wind Press
QNH
hPa
Press
MSL
hPa
Rain since
9am
mm
Dir  Spd
km/h
Gust
km/h
Spd
kts
Gust
kts
23/11:30pm 24.4 20.5 18.8 71 3.6 SE 37 43 20 23 1017.3 1016.8 0.0
23/11:00pm 24.4 20.2 18.8 71 3.6 SE 39 43 21 23 1017.5 1017.0 0.0
23/10:30pm 24.5 20.9 19.3 73 3.3 SE 37 44 20 24 1017.7 1017.2 0.0
23/10:00pm 24.5 20.3 19.8 75 3.0 SE 41 48 22 26 1018.0 1017.5 0.0
23/09:30pm 24.5 19.7 19.3 73 3.3 SE 43 48 23 26 1018.1 1017.6 0.0
23/09:00pm 24.6 19.5 19.0 71 3.6 SE 44 48 24 26 1018.1 1017.6 0.0
23/08:30pm 24.6 19.8 19.2 72 3.5 SE 43 48 23 26 1018.1 1017.6 0.0
23/08:00pm 24.5 20.1 19.3 73 3.3 SE 41 50 22 27 1017.8 1017.3 0.0
23/07:30pm 24.5 20.4 20.0 76 2.9 SE 41 46 22 25 1017.6 1017.1 0.0
23/07:00pm 24.6 20.2 20.1 76 2.9 SE 43 48 23 26 1017.2 1016.7 0.0
23/06:30pm 24.6 20.1 19.9 75 3.0 SE 43 50 23 27 1017.0 1016.5 0.0
23/06:00pm 24.8 21.3 20.3 76 2.9 SE 39 46 21 25 1016.7 1016.2 0.0
23/05:30pm 25.0 20.7 19.6 72 3.5 SE 41 46 22 25 1016.7 1016.2 0.0
23/05:00pm 25.3 21.1 19.7 71 3.6 SE 41 46 22 25 1016.7 1016.2 0.0
23/04:30pm 25.3 21.1 19.7 71 3.6 SE 41 46 22 25 1016.5 1016.0 0.0
23/04:00pm 25.8 21.6 19.7 69 4.0 SE 41 46 22 25 1016.4 1015.9 0.0
23/03:30pm 26.2 22.6 19.3 65 4.5 SE 37 44 20 24 1016.6 1016.1 0.0
23/03:00pm 26.4 22.6 19.8 67 4.3 SE 39 43 21 23 1016.6 1016.1 0.0
23/02:30pm 26.7 23.1 19.3 64 4.8 SE 37 39 20 21 1016.7 1016.2 0.0
23/02:00pm 27.1 23.9 19.4 62 5.0 SE 35 39 19 21 1016.9 1016.4 0.0
23/01:30pm 26.9 23.1 19.0 62 5.1 SE 37 41 20 22 1016.9 1016.4 0.0
23/01:00pm 27.2 23.2 18.5 59 5.6 SE 37 43 20 23 1017.3 1016.8 0.0
23/12:30pm 27.6 23.1 18.3 57 5.9 SSE 39 43 21 23 1017.4 1016.9 0.0
23/12:00pm 27.4 23.5 18.7 59 5.6 SE 37 43 20 23 1017.7 1017.2 0.0
23/11:30am 27.3 23.3 18.6 59 5.6 SE 37 43 20 23 1018.1 1017.6 0.0
23/11:00am 27.2 23.4 19.0 61 5.3 SE 37 41 20 22 1018.1 1017.6 0.0
23/10:30am 27.2 23.8 19.0 61 5.3 SE 35 43 19 23 1018.4 1017.9 0.0
23/10:00am 26.9 22.7 19.0 62 5.1 SE 39 44 21 24 1018.4 1017.9 0.0
23/09:30am 26.7 22.6 19.1 63 4.9 SE 39 43 21 23 1018.3 1017.8 0.0
23/09:00am 26.5 21.8 18.6 62 5.0 SE 41 46 22 25 1018.1 1017.6 0.0
23/08:30am 26.4 21.8 18.8 63 4.9 SE 41 48 22 26 1017.9 1017.4 0.0
23/08:00am 25.9 21.8 19.1 66 4.4 ESE 39 48 21 26 1017.8 1017.3 0.0
23/07:30am 25.8 21.3 19.0 66 4.4 SE 41 48 22 26 1017.5 1017.0 0.0
23/07:00am 24.5 20.1 20.2 77 2.8 SE 43 48 23 26 1017.1 1016.6 0.0
23/06:30am 24.3 20.1 19.8 76 2.9 SSE 41 48 22 26 1016.9 1016.4 0.0
23/06:00am 24.2 20.4 19.7 76 2.9 SSE 39 44 21 24 1016.7 1016.2 0.0
23/05:30am 24.0 19.5 19.1 74 3.1 SE 41 46 22 25 1016.3 1015.8 0.0
23/05:00am 24.0 20.2 19.7 77 2.8 SE 39 46 21 25 1016.5 1016.0 0.0
23/04:30am 23.9 19.3 18.8 73 3.2 SE 41 48 22 26 1016.5 1016.0 0.0
23/04:00am 23.9 18.9 18.8 73 3.2 SE 43 50 23 27 1016.0 1015.5 0.0
23/03:30am 24.0 19.0 18.9 73 3.3 SE 43 48 23 26 1016.3 1015.8 0.0
23/03:00am 24.0 19.2 19.3 75 3.0 SE 43 48 23 26 1016.2 1015.7 0.0
23/02:30am 24.0 19.2 19.3 75 3.0 SE 43 50 23 27 1016.5 1016.0 0.0
23/02:00am 24.1 19.3 19.2 74 3.1 SE 43 48 23 26 1016.6 1016.1 0.0
23/01:30am 24.1 18.9 18.7 72 3.4 SE 44 50 24 27 1016.7 1016.2 0.0
23/01:00am 24.1 19.3 19.2 74 3.1 SE 43 50 23 27 1017.0 1016.5 0.0
23/12:30am 24.2 18.8 19.1 73 3.3 SE 46 52 25 28 1017.3 1016.8 0.0
23/12:00am 24.3 18.9 19.1 73 3.3 SE 46 54 25 29 1017.4 1016.9 0.0
 
Date/Time
EST
Temp
°C
App
Temp
°C
Dew
Point
°C
Rel
Hum
%
Delta-T
°C
Wind Press
QNH
hPa
Press
MSL
hPa
Rain since
9am
mm
Dir  Spd
km/h
Gust
km/h
Spd
kts
Gust
kts
22/11:30pm 24.4 18.2 19.2 73 3.3 SE 50 57 27 31 1017.6 1017.1 0.0
22/11:00pm 24.5 19.1 19.3 73 3.3 SE 46 54 25 29 1018.0 1017.5 0.0
22/10:30pm 24.6 18.7 19.0 71 3.6 SE 48 57 26 31 1018.0 1017.5 0.0
22/10:00pm 24.7 18.1 19.1 71 3.6 SE 52 59 28 32 1017.8 1017.3 0.0
22/09:30pm 24.8 18.0 19.4 72 3.5 SE 54 63 29 34 1017.8 1017.3 0.0
22/09:00pm 24.8 17.9 19.2 71 3.6 SE 54 59 29 32 1017.7 1017.2 0.0
22/08:30pm 24.8 18.8 19.6 73 3.4 SE 50 57 27 31 1017.6 1017.1 0.0
22/08:00pm 24.8 18.9 19.8 74 3.2 SE 50 57 27 31 1017.5 1017.0 0.0
22/07:30pm 24.8 18.4 19.4 72 3.5 SE 52 57 28 31 1017.1 1016.6 0.0
22/07:00pm 24.8 18.8 19.6 73 3.4 SE 50 57 27 31 1017.1 1016.6 0.0
22/06:30pm 24.9 19.1 19.1 70 3.7 SE 48 56 26 30 1017.1 1016.6 0.0
22/06:00pm 24.9 19.3 19.5 72 3.5 SE 48 56 26 30 1016.7 1016.2 0.0
22/05:30pm 25.1 19.1 19.5 71 3.6 SE 50 57 27 31 1016.6 1016.1 0.0
22/05:00pm 25.2 18.8 19.6 71 3.6 SE 52 59 28 32 1016.2 1015.7 0.0
22/04:30pm 25.2 20.5 20.7 76 3.0 SE 46 54 25 29 1016.2 1015.7 0.0
22/04:00pm 25.4 20.3 19.8 71 3.6 SE 46 54 25 29 1015.9 1015.4 0.0
22/03:30pm 25.6 20.0 19.5 69 3.9 SE 48 57 26 31 1016.0 1015.5 0.0
22/03:00pm 25.6 20.1 19.7 70 3.8 SE 48 54 26 29 1016.3 1015.8 0.0

Latest Capital City Observations: Canberra | Sydney | Melbourne | Brisbane | Adelaide | Perth | Hobart | Darwin

Other Formats:

Comma delimited format used in spreadsheet applications
http://www.bom.gov.au/fwo/IDQ60901/IDQ60901.94584.axf

JavaScript Object Notation format (JSON) in row-major order
http://www.bom.gov.au/fwo/IDQ60901/IDQ60901.94584.json